Flight Track Log - Related Links

Times and Time Zones

All times are in EDT time to prevent confusion due to time zone crossing. See the SWA2447 flight status page for this flight to view local times or setup timezone preferences in your user account.

Time Position Orientation Groundspeed Altitude Reporting Facility
EDT Latitude Longitude Course Direction KTS MPH feet Rate Location/Type
Mon 10:15:06 AM 33.6514 -117.8831 194° South 159 183 1,500  Level Los Angeles Center
Mon 10:16:06 AM 33.6136 -117.8947 181° South 152 175 3,000 1,200 Climbing Los Angeles Center
Mon 10:17:06 AM 33.5656 -117.8961 101° East 152 175 3,900 1,300 Climbing Los Angeles Center
Mon 10:18:06 AM 33.5558 -117.8336 83° East 155 178 5,600 2,750 Climbing Los Angeles Center
Mon 10:19:06 AM 33.5656 -117.7392 85° East 192 221 9,400 3,350 Climbing Los Angeles Center
Mon 10:20:06 AM 33.5731 -117.6369 84° East 254 292 12,300 3,200 Climbing Los Angeles Center
Mon 10:21:06 AM 33.5828 -117.5275 87° East 289 333 15,800 3,200 Climbing Los Angeles Center
Mon 10:22:06 AM 33.5883 -117.4078 88° East 313 360 18,700 2,450 Climbing Los Angeles Center
Mon 10:23:06 AM 33.5914 -117.3081 88° East 354 407 20,700 2,500 Climbing Los Angeles Center
Mon 10:24:06 AM 33.5950 -117.1511 86° East 377 434 23,700 2,700 Climbing Los Angeles Center
Mon 10:25:06 AM 33.6022 -117.0167 88° East 394 453 26,100 2,250 Climbing Los Angeles Center
Mon 10:26:06 AM 33.6053 -116.8744 91° East 405 466 28,200 2,500 Climbing Los Angeles Center
Mon 10:27:06 AM 33.6039 -116.7372 90° East 410 472 31,100 2,350 Climbing Los Angeles Center
Mon 10:28:06 AM 33.6047 -116.6025 90° East 405 466 32,900 950 Climbing Los Angeles Center
Mon 10:29:06 AM 33.6050 -116.4628 90° East 405 466 33,000 50 Climbing Los Angeles Center
Mon 10:30:06 AM 33.6053 -116.3208 90° East 411 473 33,000  Level Los Angeles Center
Mon 10:31:06 AM 33.6056 -116.1811 90° East 417 480 33,000  Level Los Angeles Center
Mon 10:32:06 AM 33.6056 -116.0414 90° East 417 480 33,000  Level Los Angeles Center
Mon 10:33:06 AM 33.6053 -115.8992 90° East 417 480 33,000  Level Los Angeles Center
Mon 10:34:06 AM 33.6050 -115.7622 91° East 417 480 33,000  Level Los Angeles Center
Mon 10:35:06 AM 33.6025 -115.6250 90° East 417 480 33,000  Level Los Angeles Center
Mon 10:36:06 AM 33.6019 -115.4853 90° East 417 480 33,000  Level Los Angeles Center
Mon 10:37:06 AM 33.6011 -115.3506 90° East 417 480 33,000  Level Los Angeles Center
Mon 10:38:06 AM 33.6003 -115.2158 91° East 412 474 33,000  Level Los Angeles Center
Mon 10:39:06 AM 33.5992 -115.0789 91° East 407 468 33,000  Level Los Angeles Center
Mon 10:40:06 AM 33.5978 -114.9467 91° East 402 463 33,000  Level Los Angeles Center
Mon 10:41:06 AM 33.5964 -114.8069 100° East 402 463 33,000  Level Los Angeles Center
Mon 10:42:06 AM 33.5761 -114.6653 104° East 419 482 33,000 -150 Level Los Angeles Center
Mon 10:43:06 AM 33.5517 -114.5436 103° East 424 488 32,700 -1,471 Descending Los Angeles Center
Mon 10:44:41 AM 33.5117 -114.3314 104° East 441 507 29,200 -2,206 Descending Albuquerque Center
Mon 10:45:41 AM 33.4858 -114.2047 102° East 419 482 27,000 -2,100 Descending Albuquerque Center
Mon 10:46:41 AM 33.4619 -114.0733 104° East 403 464 25,000 -1,000 Descending Albuquerque Center
Mon 10:47:41 AM 33.4356 -113.9469 105° East 398 458 25,000  Level Albuquerque Center
Mon 10:48:41 AM 33.4072 -113.8178 104° East 403 464 25,000  Level Albuquerque Center
Mon 10:49:41 AM 33.3806 -113.6889 102° East 403 464 25,000 -650 Level Albuquerque Center
Mon 10:50:41 AM 33.3581 -113.5606 106° East 398 458 23,700 -1,750 Descending Albuquerque Center
Mon 10:51:41 AM 33.3292 -113.4367 104° East 398 458 21,500 -2,150 Descending Albuquerque Center
Mon 10:52:41 AM 33.3039 -113.3156 102° East 392 451 19,400 -2,150 Descending Albuquerque Center
Mon 10:53:41 AM 33.2825 -113.1975 97° East 378 435 17,200 -2,000 Descending Albuquerque Center
Mon 10:54:41 AM 33.2714 -113.0825 87° East 363 418 15,400 -1,700 Descending Albuquerque Center
Mon 10:55:41 AM 33.2764 -112.9761 88° East 340 391 13,800 -1,700 Descending Albuquerque Center
Mon 10:56:41 AM 33.2794 -112.8669 78° East 325 374 12,000 -1,450 Descending Albuquerque Center
Mon 10:57:41 AM 33.2961 -112.7736 65° Northeast 306 352 10,900 -1,000 Descending Albuquerque Center
Mon 10:58:41 AM 33.3294 -112.6864 65° Northeast 289 333 10,000 -850 Descending Albuquerque Center
Mon 10:59:41 AM 33.3600 -112.6061 63° Northeast 275 316 9,200 -892 Descending Albuquerque Center
Mon 11:01:56 AM 33.4333 -112.4333 90° East 232 267 7,100 -955 Descending Phoenix TRACON
Mon 11:03:02 AM 33.4333 -112.3500 90° East 225 259 6,000 -898 Descending Phoenix TRACON
Mon 11:04:03 AM 33.4333 -112.2667 90° East 225 259 5,200 -893 Descending Phoenix TRACON
Mon 11:05:03 AM 33.4333 -112.2000 90° East 211 243 4,200 -1,000 Descending Phoenix TRACON
Mon 11:06:03 AM 33.4333 -112.1333 90° East 190 219 3,200 -1,100 Descending Phoenix TRACON
Mon 11:07:03 AM 33.4333 -112.0833 90° East 161 185 2,000 -1,200 Descending Phoenix TRACON

Login

Don't have an account? Register now (free) for customized features, flight alerts, and more!